Flight Track Log - Related Links

Times and Time Zones

All times are in EDT time to prevent confusion due to time zone crossing. See the JBU278 flight status page for this flight to view local times or setup timezone preferences in your user account.

Time Position Orientation Groundspeed Altitude Reporting Facility
EDT Latitude Longitude Course Direction KTS MPH feet Rate Location/Type
Tue 01:35:26 AM 37.5742 -122.3294 343° North  Level FlightAware Approximate
Tue 01:36:18 AM 37.6650 -122.3642 273° West 174 200 2,700  Level Oakland Center
Tue 01:36:55 AM 37.6667 -122.4000 195° South 179 206 3,400 1,052 Climbing Northern Cal TRACON
Tue 01:37:55 AM 37.6167 -122.4167 191° South 215 247 4,400 1,500 Climbing Northern Cal TRACON
Tue 01:38:55 AM 37.5500 -122.4333 162° South 274 315 6,400 2,126 Climbing Northern Cal TRACON
Tue 01:40:02 AM 37.4667 -122.4000 132° Southeast 324 373 8,900 1,773 Climbing Northern Cal TRACON
Tue 01:42:18 AM 37.3103 -122.1825 130° Southeast 382 440 12,400 1,653 Climbing Oakland Center
Tue 01:43:18 AM 37.2342 -122.0692 128° Southeast 404 465 14,300 1,700 Climbing Oakland Center
Tue 01:44:18 AM 37.1581 -121.9481 131° Southeast 426 490 15,800 1,700 Climbing Oakland Center
Tue 01:45:18 AM 37.0736 -121.8272 129° Southeast 444 511 17,700 1,650 Climbing Oakland Center
Tue 01:46:18 AM 36.9908 -121.6989 130° Southeast 456 525 19,100 1,500 Climbing Oakland Center
Tue 01:47:18 AM 36.9061 -121.5708 130° Southeast 468 539 20,700 1,500 Climbing Oakland Center
Tue 01:48:18 AM 36.8211 -121.4431 130° Southeast 474 545 22,100 1,250 Climbing Oakland Center
Tue 01:49:18 AM 36.7361 -121.3156 129° Southeast 479 551 23,200 1,100 Climbing Oakland Center
Tue 01:50:18 AM 36.6489 -121.1806 132° Southeast 484 557 24,300 1,050 Climbing Oakland Center
Tue 01:51:18 AM 36.5550 -121.0486 130° Southeast 494 568 25,300 950 Climbing Oakland Center
Tue 01:52:18 AM 36.4633 -120.9117 130° Southeast 507 583 26,200 900 Climbing Oakland Center
Tue 01:53:18 AM 36.3692 -120.7725 130° Southeast 512 589 27,100 800 Climbing Oakland Center
Tue 01:54:18 AM 36.2750 -120.6311 131° Southeast 523 602 27,800 900 Climbing Oakland Center
Tue 01:55:18 AM 36.1744 -120.4900 130° Southeast 535 616 28,900 600 Climbing Oakland Center
Tue 01:56:18 AM 36.0819 -120.3517 129° Southeast 535 616 29,000 62 Climbing Oakland Center
Tue 01:56:55 AM 36.0228 -120.2606 131° Southeast 531 611 29,000 62 Level Los Angeles Center
Tue 01:57:55 AM 35.9231 -120.1194 131° Southeast 536 617 29,100 600 Climbing Los Angeles Center
Tue 01:58:55 AM 35.8275 -119.9817 131° Southeast 536 617 30,200 1,050 Climbing Los Angeles Center
Tue 01:59:55 AM 35.7317 -119.8439 131° Southeast 536 617 31,200 950 Climbing Los Angeles Center
Tue 02:00:55 AM 35.6356 -119.7067 120° Southeast 536 617 32,100 750 Climbing Los Angeles Center
Tue 02:01:55 AM 35.5628 -119.5528 105° East 520 598 32,700 450 Climbing Los Angeles Center
Tue 02:02:55 AM 35.5258 -119.3803 105° East 510 587 33,000 150 Climbing Los Angeles Center
Tue 02:03:55 AM 35.4883 -119.2103 105° East 510 587 33,000 -50 Level Los Angeles Center
Tue 02:04:55 AM 35.4508 -119.0406 106° East 527 606 32,900  Descending Los Angeles Center
Tue 02:05:55 AM 35.4111 -118.8711 104° East 505 581 33,000 50 Climbing Los Angeles Center
Tue 02:06:55 AM 35.3753 -118.6992 106° East 517 595 33,000  Level Los Angeles Center
Tue 02:07:55 AM 35.3347 -118.5300 105° East 532 612 33,000  Level Los Angeles Center
Tue 02:08:55 AM 35.3022 -118.3814 106° East 517 595 33,000  Level Los Angeles Center
Tue 02:09:55 AM 35.2633 -118.2150 106° East 512 589 33,000  Level Los Angeles Center
Tue 02:10:55 AM 35.2206 -118.0281 106° East 512 589 33,000  Level Los Angeles Center
Tue 02:11:55 AM 35.1814 -117.8594 106° East 518 596 33,000  Level Los Angeles Center
Tue 02:12:55 AM 35.1419 -117.6886 106° East 518 596 33,000  Level Los Angeles Center
Tue 02:13:55 AM 35.1064 -117.5356 107° East 518 596 33,000  Level Los Angeles Center
Tue 02:14:55 AM 35.0622 -117.3569 106° East 529 609 33,000  Level Los Angeles Center
Tue 02:15:55 AM 35.0222 -117.1892 107° East 529 609 33,000  Level Los Angeles Center
Tue 02:16:55 AM 34.9797 -117.0214 106° East 522 601 33,000  Level Los Angeles Center
Tue 02:17:55 AM 34.9350 -116.8333 107° East 522 601 33,000  Level Los Angeles Center
Tue 02:18:55 AM 34.8919 -116.6631 107° East 522 601 33,000  Level Los Angeles Center
Tue 02:19:55 AM 34.8508 -116.4958 106° East 522 601 33,000  Level Los Angeles Center
Tue 02:20:55 AM 34.8097 -116.3261 107° East 522 601 33,000  Level Los Angeles Center
Tue 02:21:55 AM 34.7681 -116.1567 107° East 522 601 33,000  Level Los Angeles Center
Tue 02:22:55 AM 34.7242 -115.9847 107° East 522 601 33,000  Level Los Angeles Center
Tue 02:23:55 AM 34.6864 -115.8333 108° East 522 601 33,000  Level Los Angeles Center
Tue 02:24:55 AM 34.6419 -115.6642 106° East 522 601 33,000 -50 Level Los Angeles Center
Tue 02:25:55 AM 34.6017 -115.4953 108° East 522 601 32,900 -50 Descending Los Angeles Center
Tue 02:26:55 AM 34.5567 -115.3242 107° East 522 601 32,900 50 Level Los Angeles Center
Tue 02:27:55 AM 34.5158 -115.1583 107° East 517 595 33,000 50 Climbing Los Angeles Center
Tue 02:28:55 AM 34.4728 -114.9897 108° East 522 601 33,000  Level Los Angeles Center
Tue 02:29:55 AM 34.4250 -114.8167 108° East 522 601 33,000  Level Los Angeles Center
Tue 02:30:55 AM 34.3794 -114.6489 108° East 522 601 33,000 -34 Level Los Angeles Center
Tue 02:32:49 AM 34.2889 -114.3164 106° East 518 596 32,900  Descending Albuquerque Center
Tue 02:33:49 AM 34.2467 -114.1419 110° East 524 603 33,000 50 Climbing Albuquerque Center
Tue 02:34:49 AM 34.1975 -113.9747 108° East 529 609 33,000  Level Albuquerque Center
Tue 02:35:49 AM 34.1578 -113.8261 109° East 529 609 33,000  Level Albuquerque Center
Tue 02:36:49 AM 34.1103 -113.6594 107° East 523 602 33,000  Level Albuquerque Center
Tue 02:37:49 AM 34.0669 -113.4906 109° East 523 602 33,000  Level Albuquerque Center
Tue 02:38:49 AM 34.0189 -113.3242 107° East 523 602 33,000  Level Albuquerque Center
Tue 02:39:49 AM 33.9753 -113.1533 109° East 523 602 33,000  Level Albuquerque Center
Tue 02:40:49 AM 33.9272 -112.9822 110° East 528 608 33,000  Level Albuquerque Center
Tue 02:41:49 AM 33.8783 -112.8189 108° East 528 608 33,000  Level Albuquerque Center
Tue 02:42:49 AM 33.8283 -112.6306 109° East 535 616 33,000  Level Albuquerque Center
Tue 02:43:49 AM 33.7814 -112.4628 110° East 535 616 33,000  Level Albuquerque Center
Tue 02:44:49 AM 33.7375 -112.3153 109° East 535 616 33,000  Level Albuquerque Center
Tue 02:45:49 AM 33.6825 -112.1272 108° East 530 610 33,000  Level Albuquerque Center
Tue 02:46:49 AM 33.6369 -111.9600 109° East 530 610 33,000  Level Albuquerque Center
Tue 02:47:49 AM 33.5889 -111.7956 110° East 530 610 33,000  Level Albuquerque Center
Tue 02:48:49 AM 33.5386 -111.6283 109° East 530 610 33,000  Level Albuquerque Center
Tue 02:49:49 AM 33.4903 -111.4617 109° East 530 610 33,000  Level Albuquerque Center
Tue 02:50:49 AM 33.4417 -111.2950 109° East 535 616 33,000  Level Albuquerque Center
Tue 02:51:49 AM 33.3928 -111.1261 111° Southeast 530 610 33,000  Level Albuquerque Center
Tue 02:52:49 AM 33.3453 -110.9775 109° East 535 616 33,000  Level Albuquerque Center
Tue 02:53:49 AM 33.2958 -110.8089 110° East 535 616 33,000  Level Albuquerque Center
Tue 02:54:49 AM 33.2386 -110.6228 111° Southeast 535 616 33,000  Level Albuquerque Center
Tue 02:55:49 AM 33.1867 -110.4572 110° East 535 616 33,000  Level Albuquerque Center
Tue 02:56:49 AM 33.1364 -110.2942 110° East 530 610 33,000  Level Albuquerque Center
Tue 02:57:49 AM 33.0861 -110.1314 110° East 530 610 33,000  Level Albuquerque Center
Tue 02:58:49 AM 33.0356 -109.9686 110° East 530 610 33,000  Level Albuquerque Center
Tue 02:59:49 AM 32.9847 -109.8064 111° Southeast 525 604 33,000  Level Albuquerque Center
Tue 03:00:49 AM 32.9336 -109.6464 110° East 525 604 33,000  Level Albuquerque Center
Tue 03:01:49 AM 32.8883 -109.5019 111° Southeast 520 598 33,000  Level Albuquerque Center
Tue 03:02:49 AM 32.8369 -109.3400 111° Southeast 513 590 33,000  Level Albuquerque Center
Tue 03:03:49 AM 32.7853 -109.1833 110° East 518 596 33,000  Level Albuquerque Center
Tue 03:04:49 AM 32.7353 -109.0219 111° Southeast 513 590 33,000  Level Albuquerque Center
Tue 03:05:49 AM 32.6833 -108.8606 112° Southeast 513 590 33,000  Level Albuquerque Center
Tue 03:06:49 AM 32.6247 -108.6844 111° Southeast 518 596 33,000  Level Albuquerque Center
Tue 03:07:49 AM 32.5722 -108.5211 111° Southeast 518 596 33,000  Level Albuquerque Center
Tue 03:08:49 AM 32.5217 -108.3653 111° Southeast 518 596 33,000  Level Albuquerque Center
Tue 03:09:49 AM 32.4686 -108.2050 112° Southeast 513 590 33,000  Level Albuquerque Center
Tue 03:10:49 AM 32.4133 -108.0469 110° East 513 590 33,000  Level Albuquerque Center
Tue 03:11:49 AM 32.3639 -107.8894 111° Southeast 513 590 33,000  Level Albuquerque Center
Tue 03:12:49 AM 32.3125 -107.7319 112° Southeast 513 590 33,000  Level Albuquerque Center
Tue 03:13:49 AM 32.2586 -107.5747 111° Southeast 518 596 33,000  Level Albuquerque Center
Tue 03:14:49 AM 32.2067 -107.4175 112° Southeast 513 590 33,000 -50 Level Albuquerque Center
Tue 03:15:49 AM 32.1544 -107.2656 112° Southeast 513 590 32,900 -50 Descending Albuquerque Center
Tue 03:16:49 AM 32.1022 -107.1111 111° Southeast 513 590 32,900  Level Albuquerque Center
Tue 03:17:49 AM 32.0558 -106.9694 112° Southeast 513 590 32,900 50 Level Albuquerque Center
Tue 03:18:49 AM 32.0033 -106.8156 112° Southeast 513 590 33,000 50 Climbing Albuquerque Center
Tue 03:19:49 AM 31.9503 -106.6642 112° Southeast 513 590 33,000  Level Albuquerque Center
Tue 03:20:49 AM 31.8972 -106.5106 113° Southeast 508 585 33,000 -50 Level Albuquerque Center
Tue 03:21:49 AM 31.8417 -106.3597 119° Southeast 508 585 32,900 -50 Descending Albuquerque Center
Tue 03:22:49 AM 31.7739 -106.2164 127° Southeast 503 579 32,900 50 Level Albuquerque Center
Tue 03:23:49 AM 31.6892 -106.0836 126° Southeast 503 579 33,000 50 Climbing Albuquerque Center
Tue 03:24:49 AM 31.6064 -105.9508 127° Southeast 503 579 33,000  Level Albuquerque Center
Tue 03:25:49 AM 31.5233 -105.8231 127° Southeast 503 579 33,000 -50 Level Albuquerque Center
Tue 03:26:49 AM 31.4403 -105.6933 127° Southeast 503 579 32,900 -50 Descending Albuquerque Center
Tue 03:27:49 AM 31.3594 -105.5686 127° Southeast 498 573 32,900 50 Level Albuquerque Center
Tue 03:28:49 AM 31.2783 -105.4414 127° Southeast 498 573 33,000 50 Climbing Albuquerque Center
Tue 03:29:49 AM 31.1969 -105.3172 127° Southeast 498 573 33,000 -50 Level Albuquerque Center
Tue 03:30:49 AM 31.1111 -105.1836 127° Southeast 487 560 32,900 -50 Descending Albuquerque Center
Tue 03:31:49 AM 31.0339 -105.0619 128° Southeast 481 554 32,900  Level Albuquerque Center
Tue 03:32:49 AM 30.9522 -104.9383 128° Southeast 481 554 32,900 50 Level Albuquerque Center
Tue 03:33:49 AM 30.8706 -104.8172 126° Southeast 481 554 33,000  Climbing Albuquerque Center
Tue 03:34:49 AM 30.7908 -104.6917 129° Southeast 481 554 32,900  Descending Albuquerque Center
Tue 03:35:49 AM 30.7067 -104.5689 127° Southeast 481 554 33,000 50 Climbing Albuquerque Center
Tue 03:36:49 AM 30.6247 -104.4436 128° Southeast 486 559 33,000  Level Albuquerque Center
Tue 03:37:49 AM 30.5425 -104.3211 128° Southeast 486 559 33,000  Level Albuquerque Center
Tue 03:38:49 AM 30.4600 -104.1989 128° Southeast 486 559 33,000  Level Albuquerque Center
Tue 03:39:49 AM 30.3778 -104.0769 132° Southeast 486 559 33,000 -50 Level Albuquerque Center
Tue 03:40:49 AM 30.2869 -103.9603 143° Southeast 486 559 32,900  Descending Albuquerque Center
Tue 03:41:49 AM 30.1822 -103.8706 145° Southeast 468 539 33,000  Climbing Albuquerque Center
Tue 03:42:49 AM 30.0778 -103.7861 146° Southeast 468 539 32,900 -50 Descending Albuquerque Center
Tue 03:43:49 AM 29.9711 -103.7042 147° Southeast 468 539 32,900  Level Albuquerque Center
Tue 03:44:49 AM 29.8606 -103.6225 146° Southeast 473 544 32,900 50 Level Albuquerque Center
Tue 03:45:49 AM 29.7536 -103.5386 146° Southeast 473 544 33,000 50 Climbing Albuquerque Center
Tue 03:46:49 AM 29.6447 -103.4550 147° Southeast 473 544 33,000  Level Albuquerque Center
Tue 03:47:49 AM 29.5361 -103.3739 148° Southeast 473 544 33,000 -50 Level Albuquerque Center
Tue 03:48:49 AM 29.4272 -103.2953 147° Southeast 468 539 32,900 -50 Descending Albuquerque Center
Tue 03:49:50 AM 29.3206 -103.2144 146° Southeast 479 551 32,900  Level Albuquerque Center
Tue 03:50:49 AM 29.2136 -103.1317 147° Southeast 469 540 32,900 50 Level Albuquerque Center
Tue 03:51:49 AM 29.1067 -103.0533 145° Southeast 469 540 33,000 50 Climbing Albuquerque Center
Tue 03:52:49 AM 28.9997 -102.9686 147° Southeast 474 545 33,000 -50 Level Albuquerque Center
Tue 03:53:49 AM 28.8906 -102.8861 148° Southeast 474 545 32,900 -50 Descending Albuquerque Center
Tue 03:54:49 AM 28.7836 -102.8086 147° Southeast 469 540 32,900  Level Albuquerque Center
Tue 03:55:49 AM 28.6744 -102.7289 101° East 474 545 32,900 118 Level Albuquerque Center
Tue 04:28:39 AM 27.7953 -98.0222 83° East 489 563 36,900 121 Climbing Houston Center
Tue 04:29:39 AM 27.8106 -97.8731 84° East 484 557 37,000 50 Climbing Houston Center
Tue 04:30:39 AM 27.8236 -97.7236 85° East 479 551 37,000 -50 Level Houston Center
Tue 04:31:39 AM 27.8364 -97.5694 83° East 479 551 36,900 -50 Descending Houston Center
Tue 04:32:39 AM 27.8500 -97.4503 82° East 479 551 36,900  Level Houston Center
Tue 04:33:39 AM 27.8689 -97.2917 85° East 474 545 36,900 50 Level Houston Center
Tue 04:34:39 AM 27.8814 -97.1372 85° East 479 551 37,000 50 Climbing Houston Center
Tue 04:35:39 AM 27.8936 -96.9850 84° East 485 558 37,000 -50 Level Houston Center
Tue 04:36:39 AM 27.9078 -96.8331 85° East 480 552 36,900 -50 Descending Houston Center
Tue 04:37:39 AM 27.9197 -96.6808 85° East 480 552 36,900 50 Level Houston Center
Tue 04:38:39 AM 27.9317 -96.5264 83° East 480 552 37,000 50 Climbing Houston Center
Tue 04:39:39 AM 27.9475 -96.3719 85° East 485 558 37,000  Level Houston Center
Tue 04:40:39 AM 27.9589 -96.2172 85° East 485 558 37,000 -50 Level Houston Center
Tue 04:41:39 AM 27.9703 -96.0625 85° East 491 565 36,900  Descending Houston Center
Tue 04:42:39 AM 27.9814 -95.9053 91° East 497 572 37,000 50 Climbing Houston Center
Tue 04:43:39 AM 27.9778 -95.7475 92° East 497 572 37,000  Level Houston Center
Tue 04:44:39 AM 27.9725 -95.5711 91° East 497 572 37,000  Level Houston Center
Tue 04:45:39 AM 27.9708 -95.4111 92° East 508 585 37,000  Level Houston Center
Tue 04:46:39 AM 27.9667 -95.2533 92° East 508 585 37,000  Level Houston Center
Tue 04:47:39 AM 27.9622 -95.1003 91° East 498 573 37,000  Level Houston Center
Tue 04:48:39 AM 27.9600 -94.9381 92° East 498 573 37,000  Level Houston Center
Tue 04:49:39 AM 27.9553 -94.7803 92° East 498 573 37,000  Level Houston Center
Tue 04:50:39 AM 27.9503 -94.6225 91° East 498 573 37,000  Level Houston Center
Tue 04:51:39 AM 27.9475 -94.4647 92° East 498 573 37,000  Level Houston Center
Tue 04:52:39 AM 27.9419 -94.3119 92° East 498 573 37,000  Level Houston Center
Tue 04:53:39 AM 27.9367 -94.1589 91° East 492 566 37,000  Level Houston Center
Tue 04:54:39 AM 27.9350 -94.0036 92° East 492 566 37,000  Level Houston Center
Tue 04:55:39 AM 27.9292 -93.8531 92° East 492 566 37,000  Level Houston Center
Tue 04:56:39 AM 27.9253 -93.7000 93° East 486 559 37,000  Level Houston Center
Tue 04:57:39 AM 27.9192 -93.5517 93° East 479 551 37,000  Level Houston Center
Tue 04:58:39 AM 27.9144 -93.4342 93° East 474 545 37,000  Level Houston Center
Tue 04:59:39 AM 27.9061 -93.2553 91° East 474 545 37,000 -50 Level Houston Center
Tue 05:00:39 AM 27.9036 -93.1142 92° East 474 545 36,900  Descending Houston Center
Tue 05:01:39 AM 27.8989 -92.9472 92° East 492 566 37,000 50 Climbing Houston Center
Tue 05:02:39 AM 27.8939 -92.7989 94° East 492 566 37,000  Level Houston Center
Tue 05:03:39 AM 27.8847 -92.6439 91° East 486 559 37,000  Level Houston Center
Tue 05:04:39 AM 27.8814 -92.5003 93° East 507 583 37,000 -50 Level Houston Center
Tue 05:05:39 AM 27.8739 -92.3428 93° East 501 577 36,900  Descending Houston Center
Tue 05:06:39 AM 27.8664 -92.1922 93° East 491 565 37,000  Climbing Houston Center
Tue 05:07:39 AM 27.8583 -92.0372 92° East 491 565 36,900  Descending Houston Center
Tue 05:08:39 AM 27.8525 -91.8819 92° East 497 572 37,000 50 Climbing Houston Center
Tue 05:09:39 AM 27.8464 -91.7128 95° East 497 572 37,000  Level Houston Center
Tue 05:10:39 AM 27.8339 -91.5506 92° East 497 572 37,000  Level Houston Center
Tue 05:11:39 AM 27.8294 -91.4003 94° East 496 571 37,000  Level Houston Center
Tue 05:12:39 AM 27.8208 -91.2453 95° East 496 571 37,000 -50 Level Houston Center
Tue 05:13:39 AM 27.8075 -91.0878 90° East 489 563 36,900 -50 Descending Houston Center
Tue 05:14:39 AM 27.8069 -90.9492 94° East 470 541 36,900  Level Houston Center
Tue 05:15:39 AM 27.7978 -90.7967 94° East 482 555 36,900  Level Houston Center
Tue 05:16:39 AM 27.7883 -90.6439 94° East 477 549 36,900 50 Level Houston Center
Tue 05:17:39 AM 27.7789 -90.4939 93° East 475 547 37,000 50 Climbing Houston Center
Tue 05:18:39 AM 27.7711 -90.3483 93° East 470 541 37,000  Level Houston Center
Tue 05:19:39 AM 27.7633 -90.1933 94° East 483 556 37,000  Level Houston Center
Tue 05:20:39 AM 27.7533 -90.0456 94° East 473 544 37,000 -50 Level Houston Center
Tue 05:21:39 AM 27.7453 -89.9025 93° East 478 550 36,900  Descending Houston Center
Tue 05:22:39 AM 27.7369 -89.7500 94° East 478 550 37,000 50 Climbing Houston Center
Tue 05:23:39 AM 27.7267 -89.6000 94° East 475 547 37,000  Level Houston Center
Tue 05:24:39 AM 27.7183 -89.4664 94° East 475 547 37,000 -50 Level Houston Center
Tue 05:25:39 AM 27.7094 -89.3186 95° East 481 554 36,900  Descending Houston Center
Tue 05:26:39 AM 27.6983 -89.1639 94° East 481 554 37,000 50 Climbing Houston Center
Tue 05:27:39 AM 27.6872 -89.0047 92° East 474 545 37,000  Level Houston Center
Tue 05:28:39 AM 27.6822 -88.8572 95° East 482 555 37,000 -50 Level Houston Center
Tue 05:29:39 AM 27.6708 -88.7167 94° East 465 535 36,900 -50 Descending Houston Center
Tue 05:30:39 AM 27.6614 -88.5667 94° East 475 547 36,900 38 Level Houston Center
Tue 05:32:16 AM 27.6469 -88.3353 95° East 481 554 37,000 38 Climbing Jacksonville Center
Tue 05:33:16 AM 27.6344 -88.1872 95° East 481 554 37,000  Level Jacksonville Center
Tue 05:34:16 AM 27.6222 -88.0250 94° East 476 548 37,000 -50 Level Jacksonville Center
Tue 05:35:16 AM 27.6147 -87.8983 95° East 468 539 36,900  Descending Jacksonville Center
Tue 05:36:16 AM 27.6017 -87.7456 95° East 473 544 37,000  Climbing Jacksonville Center
Tue 05:37:16 AM 27.5903 -87.6044 95° East 468 539 36,900 -50 Descending Jacksonville Center
Tue 05:38:16 AM 27.5789 -87.4589 95° East 468 539 36,900  Level Jacksonville Center
Tue 05:39:16 AM 27.5656 -87.3017 94° East 462 532 36,900 50 Level Jacksonville Center
Tue 05:40:16 AM 27.5572 -87.1750 95° East 458 527 37,000 50 Climbing Jacksonville Center
Tue 05:41:16 AM 27.5456 -87.0222 101° East 468 539 37,000  Level Jacksonville Center
Tue 05:42:16 AM 27.5192 -86.8669 101° East 472 543 37,000  Level Jacksonville Center
Tue 05:43:16 AM 27.4961 -86.7375 103° East 461 531 37,000  Level Jacksonville Center
Tue 05:44:16 AM 27.4650 -86.5844 102° East 472 543 37,000  Level Jacksonville Center
Tue 05:45:16 AM 27.4378 -86.4408 103° East 472 543 37,000  Level Jacksonville Center
Tue 05:46:16 AM 27.4083 -86.2950 102° East 467 537 37,000  Level Jacksonville Center
Tue 05:47:16 AM 27.3808 -86.1492 103° East 467 537 37,000 -30 Level Jacksonville Center
Tue 05:49:33 AM 27.3122 -85.8250 102° East 468 539 36,900  Descending Miami Center
Tue 05:50:33 AM 27.2853 -85.6853 100° East 460 529 37,000 50 Climbing Miami Center
Tue 05:51:34 AM 27.2628 -85.5414 106° East 460 529 37,000  Level Miami Center
Tue 05:52:31 AM 27.2256 -85.3964 102° East 466 536 37,000 -51 Level Miami Center
Tue 05:53:31 AM 27.1986 -85.2522 103° East 466 536 36,900 -49 Descending Miami Center
Tue 05:54:34 AM 27.1692 -85.1103 101° East 466 536 36,900 49 Level Miami Center
Tue 05:55:33 AM 27.1439 -84.9686 104° East 466 536 37,000 50 Climbing Miami Center
Tue 05:56:34 AM 27.1125 -84.8242 102° East 466 536 37,000  Level Miami Center
Tue 05:57:31 AM 27.0847 -84.6828 106° East 471 542 37,000  Level Miami Center
Tue 05:58:33 AM 27.0486 -84.5381 103° East 471 542 37,000  Level Miami Center
Tue 05:59:31 AM 27.0186 -84.3942 105° East 471 542 37,000  Level Miami Center
Tue 06:00:34 AM 26.9844 -84.2500 102° East 471 542 37,000 -50 Level Miami Center
Tue 06:01:31 AM 26.9561 -84.1061 105° East 471 542 36,900 -51 Descending Miami Center
Tue 06:02:31 AM 26.9214 -83.9644 107° East 476 548 36,900 50 Level Miami Center
Tue 06:03:31 AM 26.8844 -83.8250 106° East 476 548 37,000 50 Climbing Miami Center
Tue 06:04:31 AM 26.8478 -83.6786 107° East 476 548 37,000  Level Miami Center
Tue 06:05:31 AM 26.8083 -83.5369 106° East 476 548 37,000  Level Miami Center
Tue 06:06:31 AM 26.7731 -83.3978 107° East 471 542 37,000  Level Miami Center
Tue 06:07:31 AM 26.7333 -83.2561 107° East 471 542 37,000 -50 Level Miami Center
Tue 06:08:31 AM 26.6936 -83.1147 105° East 466 536 36,900 -50 Descending Miami Center
Tue 06:09:31 AM 26.6581 -82.9711 107° East 466 536 36,900 -200 Level Miami Center
Tue 06:10:31 AM 26.6181 -82.8272 107° East 474 545 36,500 -650 Descending Miami Center
Tue 06:11:31 AM 26.5800 -82.6883 107° East 474 545 35,600 -1,350 Descending Miami Center
Tue 06:12:31 AM 26.5417 -82.5475 106° East 474 545 33,800 -2,450 Descending Miami Center
Tue 06:13:31 AM 26.5033 -82.4017 107° East 474 545 30,700 -2,650 Descending Miami Center
Tue 06:14:31 AM 26.4631 -82.2583 107° East 474 545 28,500 -2,300 Descending Miami Center
Tue 06:15:31 AM 26.4222 -82.1128 107° East 463 533 26,100 -2,250 Descending Miami Center
Tue 06:16:31 AM 26.3872 -81.9836 105° East 449 517 24,000 -2,000 Descending Miami Center
Tue 06:17:31 AM 26.3564 -81.8525 108° East 436 502 22,100 -2,000 Descending Miami Center
Tue 06:18:31 AM 26.3208 -81.7283 107° East 425 489 20,000 -2,150 Descending Miami Center
Tue 06:19:31 AM 26.2872 -81.6067 107° East 414 476 17,800 -2,100 Descending Miami Center
Tue 06:20:31 AM 26.2556 -81.4894 108° East 409 471 15,800 -2,000 Descending Miami Center
Tue 06:21:31 AM 26.2236 -81.3794 109° East 391 450 13,800 -1,950 Descending Miami Center
Tue 06:22:31 AM 26.1911 -81.2742 107° East 377 434 11,900 -1,650 Descending Miami Center
Tue 06:23:31 AM 26.1631 -81.1711 109° East 358 412 10,500 -1,100 Descending Miami Center
Tue 06:24:31 AM 26.1364 -81.0847 106° East 332 382 9,700 -1,050 Descending Miami Center
Tue 06:25:31 AM 26.1156 -81.0053 93° East 279 321 8,400 -1,300 Descending Miami Center
Tue 06:26:31 AM 26.1117 -80.9172 94° East 273 314 7,100 -1,091 Descending Miami Center
Tue 06:27:21 AM 26.1072 -80.8500 95° East 266 306 6,400 -600 Descending Miami Center
Tue 06:28:21 AM 26.1011 -80.7689 94° East 261 300 6,000 -209 Descending Miami Center
Tue 06:29:16 AM 26.0969 -80.6947 95° East 264 304 6,000 -310 Level Miami Center
Tue 06:30:17 AM 26.0906 -80.6136 94° East 260 299 5,400 -991 Descending Miami Center
Tue 06:31:11 AM 26.0861 -80.5442 96° East 254 292 4,100 -1,046 Descending Miami Center
Tue 06:32:06 AM 26.0794 -80.4792 95° East 225 259 3,500 -783 Descending Miami Center
Tue 06:33:06 AM 26.0747 -80.4142 91° East 204 235 2,600 -496 Descending Miami Center
Tue 06:34:07 AM 26.0742 -80.3517 88° East 204 235 2,500 -248 Descending Miami Center
Tue 06:35:07 AM 26.0756 -80.2964 91° East 176 203 2,100 -567 Descending Miami Center
Tue 06:36:14 AM 26.0744 -80.2453 91° East 139 160 1,300 -672 Descending Miami Center
Tue 06:37:21 AM 26.0736 -80.1992 91° East 132 152 600 -627 Descending Miami Center

Login

Don't have an account? Register now (free) for customized features, flight alerts, and more!